Time;durP1;ratioP1;P1;durP2;ratioP2;P2;SDS_P1;SDS_P2;PMS_P1;PMS_P2;Temp;Humidity;BMP_temperature;BMP_pressure;BME280_temperature;BME280_humidity;BME280_pressure;Samples;Min_cycle;Max_cycle;Signal;HPM_P1;HPM_P2
2021/10/14 00:01:01;;;;;;;10.00;3.80;;;;;;;;;;5053798;28;20002;-95
2021/10/14 00:03:31;;;;;;;7.93;3.15;;;;;;;;;;5054611;28;20018;-94
2021/10/14 00:06:01;;;;;;;11.10;3.50;;;;;;;;;;5055535;28;20033;-94
2021/10/14 00:08:31;;;;;;;11.05;4.15;;;;;;;;;;5064756;28;20001;-94
2021/10/14 00:11:01;;;;;;;10.45;3.58;;;;;;;;;;5060088;28;20017;-95
2021/10/14 00:13:27;;;;;;;7.97;3.15;;;;;;;;;;5053150;28;20033;-95
2021/10/14 00:21:43;;;;;;;11.65;4.00;;;;;;;;;;5052636;28;19947;-95
2021/10/14 00:24:09;;;;;;;9.75;3.65;;;;;;;;;;5069330;28;20116;-94
2021/10/14 00:26:34;;;;;;;11.65;3.70;;;;;;;;;;5054005;28;20025;-95
2021/10/14 00:29:00;;;;;;;8.77;3.53;;;;;;;;;;5050168;28;20005;-94
2021/10/14 00:31:25;;;;;;;13.27;3.88;;;;;;;;;;5051894;28;20033;-95
2021/10/14 00:33:51;;;;;;;12.95;3.40;;;;;;;;;;5085209;28;20029;-95
2021/10/14 00:36:17;;;;;;;10.30;3.58;;;;;;;;;;5053231;28;20025;-94
2021/10/14 00:38:43;;;;;;;12.25;3.30;;;;;;;;;;5036676;28;20085;-94
2021/10/14 00:41:10;;;;;;;14.85;3.45;;;;;;;;;;5053297;28;20037;-95
2021/10/14 00:43:36;;;;;;;12.77;3.42;;;;;;;;;;5049746;28;20077;-95
2021/10/14 00:46:04;;;;;;;8.57;3.47;;;;;;;;;;5043184;28;20104;-94
2021/10/14 00:48:29;;;;;;;12.65;3.97;;;;;;;;;;5086457;28;20024;-94
2021/10/14 00:50:56;;;;;;;15.23;3.85;;;;;;;;;;5054163;28;20025;-95
2021/10/14 00:53:24;;;;;;;11.57;3.20;;;;;;;;;;5043239;28;20026;-94
2021/10/14 00:55:50;;;;;;;10.50;3.38;;;;;;;;;;5065424;28;20030;-95
2021/10/14 00:58:15;;;;;;;7.55;3.40;;;;;;;;;;5062489;28;20048;-95
2021/10/14 01:00:53;;;;;;;9.45;3.28;;;;;;;;;;5072459;28;20029;-95
2021/10/14 01:03:19;;;;;;;10.95;3.70;;;;;;;;;;5040502;28;20075;-94
2021/10/14 01:05:44;;;;;;;9.77;3.88;;;;;;;;;;5037988;28;20018;-95
2021/10/14 01:08:10;;;;;;;8.10;3.28;;;;;;;;;;5051119;28;20029;-95
2021/10/14 01:10:35;;;;;;;10.40;3.83;;;;;;;;;;5086468;28;20043;-95
2021/10/14 01:13:01;;;;;;;15.63;4.10;;;;;;;;;;5081275;28;20022;-95
2021/10/14 01:15:29;;;;;;;13.85;3.90;;;;;;;;;;5038191;28;20022;-95
2021/10/14 01:17:55;;;;;;;8.07;3.50;;;;;;;;;;5049943;28;20030;-95
2021/10/14 01:20:23;;;;;;;7.32;3.35;;;;;;;;;;5076213;28;20497;-95
2021/10/14 01:22:49;;;;;;;11.32;4.00;;;;;;;;;;5044931;28;20041;-95
2021/10/14 01:25:15;;;;;;;10.05;4.28;;;;;;;;;;5051162;28;20023;-96
2021/10/14 01:27:41;;;;;;;10.10;3.53;;;;;;;;;;5047532;28;20049;-94
2021/10/14 01:30:09;;;;;;;16.67;4.22;;;;;;;;;;5078665;28;20097;-95
2021/10/14 01:32:38;;;;;;;10.77;3.83;;;;;;;;;;5063999;28;20022;-95
2021/10/14 01:35:04;;;;;;;10.38;3.60;;;;;;;;;;5045281;28;20021;-95
2021/10/14 01:37:29;;;;;;;8.20;3.63;;;;;;;;;;5082669;28;20048;-95
2021/10/14 01:39:55;;;;;;;10.20;3.63;;;;;;;;;;5072085;28;20025;-94
2021/10/14 01:42:22;;;;;;;8.18;3.63;;;;;;;;;;5083267;28;20050;-95
2021/10/14 01:44:48;;;;;;;16.33;3.72;;;;;;;;;;5048684;28;20056;-95
2021/10/14 01:47:13;;;;;;;13.93;3.83;;;;;;;;;;5053528;28;20009;-94
2021/10/14 01:49:39;;;;;;;11.95;3.80;;;;;;;;;;5046568;28;20024;-95
2021/10/14 01:52:04;;;;;;;10.85;4.10;;;;;;;;;;5087610;28;20021;-94
2021/10/14 01:54:31;;;;;;;8.77;3.97;;;;;;;;;;5053594;28;20049;-95
2021/10/14 01:56:59;;;;;;;8.80;3.75;;;;;;;;;;5040516;28;20057;-96
2021/10/14 01:59:26;;;;;;;13.55;3.67;;;;;;;;;;5055287;28;20018;-95
2021/10/14 02:01:53;;;;;;;7.78;3.58;;;;;;;;;;5053505;28;20029;-96
2021/10/14 02:04:18;;;;;;;15.85;3.83;;;;;;;;;;5052759;28;20012;-93
2021/10/14 02:06:45;;;;;;;7.32;3.20;;;;;;;;;;5053588;28;20093;-93
2021/10/14 02:09:10;;;;;;;10.60;3.50;;;;;;;;;;5035243;28;20023;-95
2021/10/14 02:11:35;;;;;;;12.98;3.42;;;;;;;;;;5047058;28;20108;-94
2021/10/14 02:14:01;;;;;;;6.95;3.20;;;;;;;;;;5078240;28;20025;-94
2021/10/14 02:16:26;;;;;;;10.95;3.25;;;;;;;;;;5042566;28;20021;-93
2021/10/14 02:18:52;;;;;;;13.27;4.43;;;;;;;;;;5050889;28;20014;-94
2021/10/14 02:21:18;;;;;;;10.27;3.47;;;;;;;;;;5083326;28;20029;-93
2021/10/14 02:23:44;;;;;;;7.20;3.03;;;;;;;;;;5048478;28;20040;-94
2021/10/14 02:26:12;;;;;;;12.38;3.47;;;;;;;;;;5037240;28;20021;-93
2021/10/14 02:28:37;;;;;;;14.18;3.30;;;;;;;;;;5063316;28;20455;-93
2021/10/14 02:31:04;;;;;;;10.98;3.10;;;;;;;;;;5085848;28;20017;-94
2021/10/14 02:33:30;;;;;;;6.47;3.35;;;;;;;;;;5085429;28;20029;-94
2021/10/14 02:35:55;;;;;;;9.85;2.95;;;;;;;;;;5050447;28;20024;-94
2021/10/14 02:38:21;;;;;;;9.75;3.38;;;;;;;;;;5085092;28;20024;-93
2021/10/14 02:40:47;;;;;;;6.78;2.78;;;;;;;;;;5086593;28;20021;-93
2021/10/14 02:43:13;;;;;;;18.80;4.30;;;;;;;;;;5081306;28;20021;-94
2021/10/14 02:45:38;;;;;;;8.73;3.30;;;;;;;;;;5087236;28;20150;-94
2021/10/14 02:48:04;;;;;;;13.45;3.75;;;;;;;;;;5084870;28;20424;-94
2021/10/14 02:50:30;;;;;;;14.18;3.20;;;;;;;;;;5041528;28;20013;-93
2021/10/14 02:52:58;;;;;;;10.98;2.95;;;;;;;;;;5047394;28;20034;-94
2021/10/14 02:55:24;;;;;;;6.50;2.95;;;;;;;;;;5051798;28;20037;-94
2021/10/14 02:57:49;;;;;;;7.15;3.25;;;;;;;;;;5051903;28;20026;-94
2021/10/14 03:00:15;;;;;;;11.73;3.58;;;;;;;;;;5082168;28;20112;-94
2021/10/14 03:02:40;;;;;;;9.02;2.78;;;;;;;;;;5052233;28;20026;-93
2021/10/14 03:05:06;;;;;;;12.73;3.60;;;;;;;;;;5082776;28;20032;-94
2021/10/14 03:07:31;;;;;;;11.88;3.33;;;;;;;;;;5071646;28;20026;-95
2021/10/14 03:09:57;;;;;;;10.05;3.00;;;;;;;;;;5045401;28;20013;-94
2021/10/14 03:12:22;;;;;;;12.10;3.25;;;;;;;;;;5081909;28;20022;-94
2021/10/14 03:14:47;;;;;;;6.22;2.83;;;;;;;;;;5082347;28;20053;-93
2021/10/14 03:17:14;;;;;;;8.93;3.10;;;;;;;;;;5030732;28;20022;-93
2021/10/14 03:19:40;;;;;;;6.70;2.45;;;;;;;;;;5043093;28;20027;-93
2021/10/14 03:22:05;;;;;;;16.77;3.00;;;;;;;;;;5051860;28;20025;-94
2021/10/14 03:24:31;;;;;;;14.40;2.85;;;;;;;;;;5085913;28;20024;-94
2021/10/14 03:26:56;;;;;;;10.77;2.65;;;;;;;;;;5050781;28;20017;-93
2021/10/14 03:29:22;;;;;;;9.18;2.63;;;;;;;;;;5084832;28;20028;-94
2021/10/14 03:31:48;;;;;;;13.30;2.95;;;;;;;;;;5051459;28;20044;-94
2021/10/14 03:34:13;;;;;;;11.70;2.95;;;;;;;;;;5051798;28;20017;-93
2021/10/14 03:36:39;;;;;;;10.27;2.33;;;;;;;;;;5050993;28;20025;-94
2021/10/14 03:39:04;;;;;;;8.00;2.80;;;;;;;;;;5078914;28;20006;-94
2021/10/14 03:41:30;;;;;;;14.13;2.97;;;;;;;;;;5042287;28;20028;-94
2021/10/14 03:43:55;;;;;;;15.32;2.67;;;;;;;;;;5052876;28;20025;-94
2021/10/14 03:46:21;;;;;;;15.82;3.28;;;;;;;;;;5070092;28;20025;-93
2021/10/14 03:48:47;;;;;;;11.65;2.60;;;;;;;;;;5050817;28;20030;-93
2021/10/14 03:51:12;;;;;;;8.10;2.65;;;;;;;;;;5050810;28;20021;-93
2021/10/14 03:53:38;;;;;;;11.07;2.97;;;;;;;;;;5048662;28;20029;-93
2021/10/14 03:56:03;;;;;;;19.30;3.42;;;;;;;;;;5082214;28;20017;-94
2021/10/14 03:58:29;;;;;;;9.15;2.90;;;;;;;;;;5083197;28;20171;-94
2021/10/14 04:00:54;;;;;;;8.60;3.00;;;;;;;;;;5033830;28;20025;-94
2021/10/14 04:03:20;;;;;;;13.70;3.20;;;;;;;;;;5041622;28;20466;-94
2021/10/14 04:05:45;;;;;;;8.77;2.42;;;;;;;;;;5039345;28;20025;-94
2021/10/14 04:08:10;;;;;;;10.15;2.97;;;;;;;;;;5080511;28;20037;-93
2021/10/14 04:10:37;;;;;;;11.18;2.97;;;;;;;;;;5079948;28;20029;-94
2021/10/14 04:13:03;;;;;;;6.13;2.85;;;;;;;;;;5047678;28;20021;-93
2021/10/14 04:15:28;;;;;;;10.30;3.40;;;;;;;;;;5082718;28;20096;-93
2021/10/14 04:17:54;;;;;;;6.72;3.10;;;;;;;;;;5048271;28;20055;-94
2021/10/14 04:20:19;;;;;;;9.48;2.92;;;;;;;;;;5082841;28;20048;-93
2021/10/14 04:22:47;;;;;;;7.78;2.95;;;;;;;;;;5081732;28;20037;-93
2021/10/14 04:25:13;;;;;;;5.72;2.70;;;;;;;;;;5078633;28;20030;-93
2021/10/14 04:27:39;;;;;;;9.88;2.97;;;;;;;;;;5035038;28;20025;-94
2021/10/14 04:30:05;;;;;;;12.48;3.13;;;;;;;;;;5079195;28;20060;-94
2021/10/14 04:32:30;;;;;;;14.65;3.92;;;;;;;;;;5081814;28;20465;-94
2021/10/14 04:34:56;;;;;;;10.70;3.78;;;;;;;;;;5046240;28;20026;-94
2021/10/14 04:37:21;;;;;;;11.15;3.03;;;;;;;;;;5051177;28;20041;-94
2021/10/14 04:39:47;;;;;;;9.85;3.10;;;;;;;;;;5080688;28;20013;-94
2021/10/14 04:42:12;;;;;;;10.88;3.80;;;;;;;;;;5046793;28;20021;-93
2021/10/14 04:44:38;;;;;;;11.27;3.83;;;;;;;;;;5046638;28;20029;-94
2021/10/14 04:47:04;;;;;;;12.68;4.15;;;;;;;;;;5048458;28;20084;-94
2021/10/14 04:49:29;;;;;;;11.43;3.78;;;;;;;;;;5044738;28;20056;-94
2021/10/14 04:51:54;;;;;;;11.93;4.07;;;;;;;;;;5081143;28;20019;-94
2021/10/14 04:54:20;;;;;;;9.70;3.97;;;;;;;;;;5047802;28;20112;-94
2021/10/14 04:56:45;;;;;;;11.73;3.75;;;;;;;;;;5079703;28;20032;-93
2021/10/14 04:59:10;;;;;;;8.98;3.85;;;;;;;;;;5045850;28;20018;-94
2021/10/14 05:01:36;;;;;;;12.27;3.90;;;;;;;;;;5073946;28;20089;-93
2021/10/14 05:04:01;;;;;;;14.48;3.75;;;;;;;;;;5077695;28;20025;-95
2021/10/14 05:06:27;;;;;;;10.70;3.60;;;;;;;;;;5065862;28;20018;-94
2021/10/14 05:08:52;;;;;;;11.50;4.60;;;;;;;;;;5034289;28;20017;-95
2021/10/14 05:11:17;;;;;;;13.95;4.80;;;;;;;;;;5079916;28;20027;-93
2021/10/14 05:13:43;;;;;;;15.45;4.60;;;;;;;;;;5049358;28;20072;-94
2021/10/14 05:16:08;;;;;;;14.75;4.65;;;;;;;;;;5048352;28;20022;-93
2021/10/14 05:18:34;;;;;;;18.20;4.95;;;;;;;;;;5048424;28;20103;-93
2021/10/14 05:20:59;;;;;;;13.85;4.65;;;;;;;;;;5080358;28;20033;-94
2021/10/14 05:23:25;;;;;;;14.63;4.97;;;;;;;;;;5052738;28;20013;-93
2021/10/14 05:25:50;;;;;;;15.07;5.35;;;;;;;;;;5047849;28;20017;-93
2021/10/14 05:28:16;;;;;;;17.27;5.40;;;;;;;;;;5081402;28;20025;-93
2021/10/14 05:30:41;;;;;;;13.63;5.18;;;;;;;;;;5046494;28;20021;-94
2021/10/14 05:33:07;;;;;;;14.15;5.45;;;;;;;;;;5052485;28;20028;-94
2021/10/14 05:35:32;;;;;;;14.95;5.68;;;;;;;;;;5085456;28;20021;-93
2021/10/14 05:37:58;;;;;;;14.65;5.60;;;;;;;;;;5048176;28;20024;-94
2021/10/14 05:40:24;;;;;;;18.42;5.78;;;;;;;;;;5081597;28;20014;-93
2021/10/14 05:42:49;;;;;;;18.33;6.45;;;;;;;;;;5084988;28;20041;-94
2021/10/14 05:45:14;;;;;;;13.30;6.13;;;;;;;;;;5081278;28;20021;-94
2021/10/14 05:47:40;;;;;;;14.88;5.97;;;;;;;;;;5048134;28;20020;-93
2021/10/14 05:50:06;;;;;;;16.35;5.90;;;;;;;;;;5050620;28;20108;-94
2021/10/14 05:52:31;;;;;;;13.75;6.32;;;;;;;;;;5085959;28;20018;-93
2021/10/14 05:54:59;;;;;;;18.88;5.82;;;;;;;;;;5052059;28;20029;-95
2021/10/14 05:57:25;;;;;;;14.65;6.10;;;;;;;;;;5057133;28;20051;-94
2021/10/14 05:59:50;;;;;;;17.33;6.63;;;;;;;;;;5052718;28;20022;-94
2021/10/14 06:02:17;;;;;;;15.65;5.97;;;;;;;;;;5045078;28;20025;-93
2021/10/14 06:04:43;;;;;;;13.70;5.72;;;;;;;;;;5046840;28;20021;-93
2021/10/14 06:07:08;;;;;;;20.90;6.97;;;;;;;;;;5056659;28;20017;-94
2021/10/14 06:09:34;;;;;;;18.60;6.68;;;;;;;;;;5058286;28;20083;-93
2021/10/14 06:11:59;;;;;;;18.55;6.97;;;;;;;;;;5094889;28;20029;-94
2021/10/14 06:14:25;;;;;;;15.10;6.75;;;;;;;;;;5052526;28;20020;-92
2021/10/14 06:16:52;;;;;;;16.50;6.90;;;;;;;;;;5055724;28;20022;-94
2021/10/14 06:19:38;;;;;;;15.55;6.57;;;;;;;;;;5035710;28;20041;-95
2021/10/14 06:22:05;;;;;;;17.88;6.90;;;;;;;;;;5087839;28;20018;-93
2021/10/14 06:24:30;;;;;;;17.75;7.68;;;;;;;;;;5088060;28;20021;-93
2021/10/14 06:26:57;;;;;;;15.60;6.47;;;;;;;;;;5052077;28;20088;-94
2021/10/14 06:29:22;;;;;;;14.30;6.75;;;;;;;;;;5084916;28;20104;-94
2021/10/14 06:31:48;;;;;;;17.38;7.07;;;;;;;;;;5092836;28;20037;-95
2021/10/14 06:34:16;;;;;;;14.13;6.50;;;;;;;;;;5085146;28;20480;-94
2021/10/14 06:36:44;;;;;;;15.60;7.53;;;;;;;;;;5052080;28;20093;-93
2021/10/14 06:39:09;;;;;;;17.60;7.30;;;;;;;;;;5050320;28;20021;-93
2021/10/14 06:41:35;;;;;;;15.38;7.60;;;;;;;;;;5037893;28;20041;-93
2021/10/14 06:44:00;;;;;;;18.00;7.35;;;;;;;;;;5043825;28;20045;-93
2021/10/14 06:46:26;;;;;;;19.15;7.07;;;;;;;;;;5071685;28;20033;-94
2021/10/14 06:48:54;;;;;;;18.05;7.93;;;;;;;;;;5082755;28;20013;-95
2021/10/14 06:51:19;;;;;;;19.58;7.15;;;;;;;;;;5069316;28;20022;-93
2021/10/14 06:53:45;;;;;;;20.48;7.15;;;;;;;;;;5055232;28;20032;-93
2021/10/14 06:56:10;;;;;;;22.13;7.03;;;;;;;;;;5056583;28;20029;-93
2021/10/14 06:58:35;;;;;;;15.73;7.20;;;;;;;;;;5048864;28;20083;-93
2021/10/14 07:01:04;;;;;;;19.70;6.63;;;;;;;;;;5081510;28;20087;-95
2021/10/14 07:03:29;;;;;;;18.83;7.30;;;;;;;;;;5062295;28;20022;-94
2021/10/14 07:05:55;;;;;;;21.55;7.88;;;;;;;;;;5070982;28;20036;-94
2021/10/14 07:08:21;;;;;;;15.25;6.93;;;;;;;;;;5047169;28;20021;-94
2021/10/14 07:10:47;;;;;;;15.18;7.07;;;;;;;;;;5071022;28;20033;-93
2021/10/14 07:13:13;;;;;;;12.88;6.50;;;;;;;;;;5044935;28;20022;-93
2021/10/14 07:15:39;;;;;;;14.93;6.85;;;;;;;;;;5049118;28;20025;-93
2021/10/14 07:18:05;;;;;;;18.85;7.10;;;;;;;;;;5059495;28;20100;-94
2021/10/14 07:20:30;;;;;;;19.98;7.18;;;;;;;;;;4909454;28;4228378;-93
2021/10/14 07:22:56;;;;;;;18.00;7.72;;;;;;;;;;5038227;28;20033;-95
2021/10/14 07:25:21;;;;;;;19.33;7.72;;;;;;;;;;5055628;28;20079;-94
2021/10/14 07:27:46;;;;;;;16.10;6.53;;;;;;;;;;5081050;28;20093;-94
2021/10/14 07:30:12;;;;;;;19.85;7.45;;;;;;;;;;5081952;28;20017;-93
2021/10/14 07:32:39;;;;;;;18.08;7.20;;;;;;;;;;5061445;28;20025;-93
2021/10/14 07:35:05;;;;;;;13.80;5.95;;;;;;;;;;5082425;28;20081;-94
2021/10/14 07:37:30;;;;;;;17.77;7.80;;;;;;;;;;5048635;28;20024;-95
2021/10/14 07:39:56;;;;;;;20.25;7.57;;;;;;;;;;5047759;28;20017;-96
2021/10/14 07:42:21;;;;;;;19.90;7.07;;;;;;;;;;5092096;28;20101;-94
2021/10/14 07:44:47;;;;;;;16.25;7.25;;;;;;;;;;5049295;28;20029;-94
2021/10/14 07:47:12;;;;;;;21.58;7.18;;;;;;;;;;5046094;28;20024;-94
2021/10/14 07:49:38;;;;;;;16.92;6.85;;;;;;;;;;5047213;28;20080;-94
2021/10/14 07:52:03;;;;;;;18.52;7.40;;;;;;;;;;5046974;28;20021;-93
2021/10/14 07:54:31;;;;;;;17.27;7.38;;;;;;;;;;5046840;28;20112;-95
2021/10/14 07:56:56;;;;;;;18.55;6.72;;;;;;;;;;5082909;28;20018;-94
2021/10/14 07:59:21;;;;;;;21.25;7.82;;;;;;;;;;5067078;28;20022;-94
2021/10/14 08:01:47;;;;;;;18.75;7.85;;;;;;;;;;5082234;28;20028;-95
2021/10/14 08:04:15;;;;;;;16.52;8.23;;;;;;;;;;5046413;28;20021;-94
2021/10/14 08:06:41;;;;;;;19.45;7.43;;;;;;;;;;5081040;28;20044;-94
2021/10/14 08:09:06;;;;;;;13.98;6.97;;;;;;;;;;5082698;28;20033;-94
2021/10/14 08:11:33;;;;;;;19.95;6.50;;;;;;;;;;5077502;28;20025;-93
2021/10/14 08:13:59;;;;;;;15.80;7.70;;;;;;;;;;5038130;28;20025;-93
2021/10/14 08:16:24;;;;;;;23.85;7.22;;;;;;;;;;5081920;28;20088;-94
2021/10/14 08:18:50;;;;;;;17.08;8.10;;;;;;;;;;5077961;28;20377;-94
2021/10/14 08:21:15;;;;;;;18.23;8.05;;;;;;;;;;5029430;28;20034;-93
2021/10/14 08:23:41;;;;;;;18.33;8.45;;;;;;;;;;5038294;28;20010;-94
2021/10/14 08:26:08;;;;;;;18.90;7.97;;;;;;;;;;5040447;28;20017;-94
2021/10/14 08:28:33;;;;;;;17.77;8.70;;;;;;;;;;5070660;28;20036;-89
2021/10/14 08:30:59;;;;;;;19.05;8.50;;;;;;;;;;5032866;28;20481;-90
2021/10/14 08:33:24;;;;;;;19.83;8.68;;;;;;;;;;5032694;28;20024;-90
2021/10/14 08:35:49;;;;;;;21.08;8.63;;;;;;;;;;5032646;28;20021;-89
2021/10/14 08:38:14;;;;;;;18.98;8.98;;;;;;;;;;5033086;28;20029;-89
2021/10/14 08:40:40;;;;;;;19.65;8.27;;;;;;;;;;5032216;28;20099;-90
2021/10/14 08:43:07;;;;;;;21.38;8.27;;;;;;;;;;5066141;28;20024;-88
2021/10/14 08:45:33;;;;;;;19.17;8.45;;;;;;;;;;5067003;28;20031;-88
2021/10/14 08:48:00;;;;;;;19.38;8.27;;;;;;;;;;5058821;28;20036;-90
2021/10/14 08:50:25;;;;;;;17.00;8.07;;;;;;;;;;5028022;28;20022;-91
2021/10/14 08:52:51;;;;;;;17.90;8.57;;;;;;;;;;5036547;28;20464;-91
2021/10/14 08:55:16;;;;;;;29.25;9.07;;;;;;;;;;5035314;28;20117;-90
2021/10/14 08:57:41;;;;;;;22.55;9.27;;;;;;;;;;5041182;28;20053;-91
2021/10/14 09:00:06;;;;;;;23.13;9.43;;;;;;;;;;5073107;28;20443;-87
2021/10/14 09:02:33;;;;;;;21.55;9.43;;;;;;;;;;5025304;28;20484;-91
2021/10/14 09:05:01;;;;;;;18.67;8.25;;;;;;;;;;5018980;28;20024;-92
2021/10/14 09:07:27;;;;;;;20.98;8.45;;;;;;;;;;5032494;28;20116;-92
2021/10/14 09:09:53;;;;;;;15.98;7.78;;;;;;;;;;5031802;28;20378;-92
2021/10/14 09:12:19;;;;;;;19.98;8.15;;;;;;;;;;5064342;28;20029;-94
2021/10/14 09:14:55;;;;;;;18.65;8.77;;;;;;;;;;5032559;28;20030;-91
2021/10/14 09:17:46;;;;;;;15.85;8.05;;;;;;;;;;5066071;28;20108;-92
2021/10/14 09:20:21;;;;;;;18.20;8.27;;;;;;;;;;5036244;28;20029;-92
2021/10/14 09:22:55;;;;;;;16.23;8.10;;;;;;;;;;5067652;28;20033;-91
2021/10/14 09:25:27;;;;;;;20.73;8.93;;;;;;;;;;5068503;28;20381;-91
2021/10/14 09:27:53;;;;;;;18.65;8.40;;;;;;;;;;5032751;28;20029;-92
2021/10/14 09:30:18;;;;;;;18.58;8.95;;;;;;;;;;5018751;28;20381;-92
2021/10/14 09:32:43;;;;;;;17.48;8.70;;;;;;;;;;5037151;28;20469;-92
2021/10/14 09:35:22;;;;;;;19.70;7.90;;;;;;;;;;5038988;28;20048;-92
2021/10/14 09:37:47;;;;;;;15.45;7.53;;;;;;;;;;5032686;28;20021;-91
2021/10/14 09:40:14;;;;;;;14.13;7.60;;;;;;;;;;5033698;28;20040;-93
2021/10/14 09:42:42;;;;;;;19.30;7.32;;;;;;;;;;5044701;28;20022;-91
2021/10/14 09:45:16;;;;;;;18.92;7.72;;;;;;;;;;5053281;28;20037;-91
2021/10/14 09:47:46;;;;;;;15.75;7.47;;;;;;;;;;5020438;28;20100;-91
2021/10/14 09:50:11;;;;;;;20.00;7.50;;;;;;;;;;5065733;28;20091;-91
2021/10/14 09:52:36;;;;;;;13.82;6.72;;;;;;;;;;5032475;28;20021;-92
2021/10/14 09:55:02;;;;;;;11.95;6.45;;;;;;;;;;5032584;28;20028;-92
2021/10/14 09:57:27;;;;;;;17.42;8.32;;;;;;;;;;5066266;28;20439;-93
2021/10/14 09:59:52;;;;;;;17.38;7.60;;;;;;;;;;5035818;28;20022;-93
2021/10/14 10:02:18;;;;;;;10.85;6.20;;;;;;;;;;5036125;28;20497;-93
2021/10/14 10:04:43;;;;;;;14.25;7.30;;;;;;;;;;5068755;28;20496;-92
2021/10/14 10:07:09;;;;;;;15.13;7.70;;;;;;;;;;5036147;28;20488;-94
2021/10/14 10:09:37;;;;;;;16.95;6.60;;;;;;;;;;5069287;28;20079;-93
2021/10/14 10:12:04;;;;;;;13.90;6.18;;;;;;;;;;5069178;28;20080;-93
2021/10/14 10:14:30;;;;;;;15.13;7.07;;;;;;;;;;5035936;28;20021;-94
2021/10/14 10:16:55;;;;;;;17.67;5.75;;;;;;;;;;5069235;28;20457;-92
2021/10/14 10:19:39;;;;;;;13.07;6.75;;;;;;;;;;5069124;28;20036;-91
2021/10/14 10:22:05;;;;;;;15.55;6.28;;;;;;;;;;5035582;28;20021;-94
2021/10/14 10:24:31;;;;;;;11.88;5.97;;;;;;;;;;5035814;28;20440;-92
2021/10/14 10:26:57;;;;;;;12.32;5.70;;;;;;;;;;5068954;28;20021;-93
2021/10/14 10:29:23;;;;;;;9.73;5.05;;;;;;;;;;5036801;28;20032;-93
2021/10/14 10:31:48;;;;;;;11.00;5.45;;;;;;;;;;5064672;28;20413;-92
2021/10/14 10:35:14;;;;;;;13.00;5.68;;;;;;;;;;5068695;28;20358;-93
2021/10/14 10:37:21;;;;;;;11.35;5.57;;;;;;;;;;5027953;28;20106;-93
2021/10/14 10:39:49;;;;;;;14.02;5.97;;;;;;;;;;5068799;28;20021;-93
2021/10/14 10:42:14;;;;;;;13.68;5.15;;;;;;;;;;5068545;28;20071;-92
2021/10/14 10:44:44;;;;;;;11.88;5.82;;;;;;;;;;5068745;28;20415;-93
2021/10/14 10:47:28;;;;;;;13.50;6.05;;;;;;;;;;5035175;28;20389;-93
2021/10/14 10:49:56;;;;;;;11.98;5.40;;;;;;;;;;5035162;28;20013;-94
2021/10/14 10:52:37;;;;;;;9.60;6.03;;;;;;;;;;5066987;28;20013;-93
2021/10/14 10:55:26;;;;;;;17.15;5.50;;;;;;;;;;5021921;28;20049;-93
2021/10/14 10:57:52;;;;;;;12.82;6.13;;;;;;;;;;5030483;28;20071;-93
2021/10/14 11:00:18;;;;;;;10.40;5.78;;;;;;;;;;5023098;28;20067;-92
2021/10/14 11:02:44;;;;;;;14.95;6.10;;;;;;;;;;5068392;28;20021;-93
2021/10/14 11:05:09;;;;;;;20.48;5.90;;;;;;;;;;5034923;28;20519;-93
2021/10/14 11:07:35;;;;;;;14.32;6.50;;;;;;;;;;5035046;28;20074;-92
2021/10/14 11:10:00;;;;;;;10.23;6.05;;;;;;;;;;5033627;28;20022;-93
2021/10/14 11:12:25;;;;;;;17.13;6.35;;;;;;;;;;5035075;28;20033;-93
2021/10/14 11:14:50;;;;;;;18.92;6.45;;;;;;;;;;5034669;28;20034;-94
2021/10/14 11:17:16;;;;;;;15.55;6.63;;;;;;;;;;5034805;28;20036;-94
2021/10/14 11:19:41;;;;;;;16.23;6.70;;;;;;;;;;5034255;28;20025;-93
2021/10/14 11:22:16;;;;;;;11.95;5.40;;;;;;;;;;5034440;28;20112;-93
2021/10/14 11:24:46;;;;;;;13.90;6.93;;;;;;;;;;5035762;28;20037;-93
2021/10/14 11:27:12;;;;;;;11.95;6.63;;;;;;;;;;5067709;28;20457;-93
2021/10/14 11:29:37;;;;;;;15.25;6.75;;;;;;;;;;5065700;28;20032;-91
2021/10/14 11:32:06;;;;;;;13.45;5.93;;;;;;;;;;5040629;28;20115;-92
2021/10/14 11:34:31;;;;;;;13.10;6.28;;;;;;;;;;5069794;28;20036;-91
2021/10/14 11:36:58;;;;;;;10.50;6.18;;;;;;;;;;5035835;28;20088;-91
2021/10/14 11:39:25;;;;;;;12.23;6.15;;;;;;;;;;5038640;28;20036;-91
2021/10/14 11:41:55;;;;;;;13.40;6.20;;;;;;;;;;5071799;28;20029;-91
2021/10/14 11:44:20;;;;;;;13.70;5.65;;;;;;;;;;5043059;28;20086;-91
2021/10/14 11:46:46;;;;;;;12.43;5.40;;;;;;;;;;5072860;28;20068;-91
2021/10/14 11:49:11;;;;;;;14.52;6.13;;;;;;;;;;5041898;28;20021;-91
2021/10/14 11:51:37;;;;;;;10.95;5.78;;;;;;;;;;5042364;28;20089;-91
2021/10/14 11:54:10;;;;;;;17.23;5.55;;;;;;;;;;5077496;28;20026;-92
2021/10/14 11:56:43;;;;;;;10.20;5.82;;;;;;;;;;5041649;28;20018;-91
2021/10/14 11:59:08;;;;;;;12.25;6.05;;;;;;;;;;5071328;28;20050;-91
2021/10/14 12:01:40;;;;;;;15.15;5.47;;;;;;;;;;5036420;28;20022;-87
2021/10/14 12:04:06;;;;;;;10.40;5.47;;;;;;;;;;5032796;28;20112;-87
2021/10/14 12:06:32;;;;;;;11.25;5.95;;;;;;;;;;5032555;28;20028;-87
2021/10/14 12:08:57;;;;;;;11.27;5.75;;;;;;;;;;5033391;28;20018;-87
2021/10/14 12:11:23;;;;;;;12.95;6.72;;;;;;;;;;5032497;28;20108;-86
2021/10/14 12:13:55;;;;;;;13.43;6.20;;;;;;;;;;5076744;28;20377;-87
2021/10/14 12:16:20;;;;;;;;;;;;;;;;;;5032915;28;20369;-87
2021/10/14 12:18:45;;;;;;;12.30;5.32;;;;;;;;;;5046496;28;20284;-86
2021/10/14 12:21:30;;;;;;;11.70;5.68;;;;;;;;;;5032019;28;20263;-87
2021/10/14 12:24:13;;;;;;;12.18;5.20;;;;;;;;;;5045447;28;20092;-87
2021/10/14 12:26:46;;;;;;;11.43;6.13;;;;;;;;;;5051133;28;20046;-87
2021/10/14 12:29:22;;;;;;;14.23;5.95;;;;;;;;;;5066153;28;20062;-87
2021/10/14 12:31:47;;;;;;;11.15;5.70;;;;;;;;;;5032114;28;20025;-87
2021/10/14 12:34:12;;;;;;;14.82;6.57;;;;;;;;;;5033613;28;20422;-87
2021/10/14 12:36:45;;;;;;;13.90;6.47;;;;;;;;;;5043163;28;20033;-87
2021/10/14 12:39:20;;;;;;;11.50;6.53;;;;;;;;;;5039919;28;20029;-89
2021/10/14 12:41:52;;;;;;;13.40;6.13;;;;;;;;;;5027460;28;20026;-88
2021/10/14 12:44:18;;;;;;;13.75;5.82;;;;;;;;;;5047481;28;20037;-88
2021/10/14 12:47:02;;;;;;;12.50;5.38;;;;;;;;;;5022358;28;20124;-88
2021/10/14 12:51:52;;;;;;;14.95;5.95;;;;;;;;;;5038530;28;20047;-88
2021/10/14 12:54:19;;;;;;;13.25;6.50;;;;;;;;;;5035213;28;20424;-87
2021/10/14 12:56:49;;;;;;;11.30;6.35;;;;;;;;;;5034634;28;20041;-83
2021/10/14 12:59:16;;;;;;;12.40;5.63;;;;;;;;;;5032040;28;20018;-83
2021/10/14 13:01:42;;;;;;;11.13;5.30;;;;;;;;;;5019491;28;20025;-83
2021/10/14 13:04:09;;;;;;;14.75;5.45;;;;;;;;;;5033329;28;20017;-83
2021/10/14 13:06:34;;;;;;;13.15;5.35;;;;;;;;;;5065451;28;20025;-83
2021/10/14 13:09:02;;;;;;;11.48;5.32;;;;;;;;;;5031980;28;20026;-84
2021/10/14 13:11:36;;;;;;;11.75;5.53;;;;;;;;;;5031635;28;20029;-82
2021/10/14 13:14:08;;;;;;;10.95;5.78;;;;;;;;;;5031578;28;20042;-82
2021/10/14 13:16:34;;;;;;;11.60;4.95;;;;;;;;;;5065015;28;20018;-83
2021/10/14 13:19:00;;;;;;;12.55;4.88;;;;;;;;;;5033070;28;20068;-83
2021/10/14 13:21:26;;;;;;;9.60;4.88;;;;;;;;;;5031478;28;20190;-82
2021/10/14 13:23:51;;;;;;;11.45;5.00;;;;;;;;;;5031499;28;20017;-83
2021/10/14 13:26:16;;;;;;;13.98;6.10;;;;;;;;;;5032650;28;20066;-86
2021/10/14 13:28:42;;;;;;;11.18;5.47;;;;;;;;;;5031214;28;20128;-88
2021/10/14 13:31:09;;;;;;;12.65;5.40;;;;;;;;;;5033761;28;20466;-89
2021/10/14 13:33:35;;;;;;;10.02;4.70;;;;;;;;;;5034807;28;20250;-88
2021/10/14 13:36:06;;;;;;;9.57;4.95;;;;;;;;;;5036283;28;20024;-89
2021/10/14 13:38:33;;;;;;;9.93;4.78;;;;;;;;;;5035883;28;20444;-88
2021/10/14 13:41:03;;;;;;;12.07;5.35;;;;;;;;;;5037597;28;20051;-89
2021/10/14 13:43:35;;;;;;;11.63;5.07;;;;;;;;;;5069653;28;20013;-89
2021/10/14 13:46:00;;;;;;;10.35;4.30;;;;;;;;;;5059148;28;20469;-89
2021/10/14 13:48:26;;;;;;;13.63;5.80;;;;;;;;;;5036118;28;20079;-89
2021/10/14 13:50:51;;;;;;;9.82;4.65;;;;;;;;;;5036983;28;20109;-89
2021/10/14 13:53:16;;;;;;;12.88;4.97;;;;;;;;;;5045121;28;20032;-89
2021/10/14 13:55:42;;;;;;;13.20;4.95;;;;;;;;;;5076141;28;20017;-89
2021/10/14 13:58:08;;;;;;;11.88;5.15;;;;;;;;;;5037765;28;20072;-89
2021/10/14 14:00:34;;;;;;;11.15;4.57;;;;;;;;;;5036078;28;20079;-90
2021/10/14 14:03:00;;;;;;;9.77;5.05;;;;;;;;;;5035577;28;20109;-89
2021/10/14 14:05:25;;;;;;;11.57;4.82;;;;;;;;;;5035819;28;20422;-89
2021/10/14 14:07:50;;;;;;;12.32;4.93;;;;;;;;;;5069018;28;20143;-89
2021/10/14 14:10:16;;;;;;;11.75;5.00;;;;;;;;;;5067173;28;20465;-89
2021/10/14 14:12:41;;;;;;;11.45;4.65;;;;;;;;;;5034976;28;20022;-80
2021/10/14 14:15:09;;;;;;;13.88;4.70;;;;;;;;;;5080803;28;20491;-80
2021/10/14 14:17:34;;;;;;;11.23;4.78;;;;;;;;;;5067570;28;20076;-80
2021/10/14 14:20:00;;;;;;;11.70;4.55;;;;;;;;;;5034409;28;20025;-86
2021/10/14 14:22:25;;;;;;;12.27;4.97;;;;;;;;;;5051649;28;20433;-87
2021/10/14 14:24:50;;;;;;;10.88;4.90;;;;;;;;;;5040945;28;20068;-87
2021/10/14 14:27:15;;;;;;;12.70;4.63;;;;;;;;;;5044386;28;20120;-86
2021/10/14 14:29:43;;;;;;;9.80;4.40;;;;;;;;;;5039657;28;20061;-86
2021/10/14 14:32:08;;;;;;;11.95;4.47;;;;;;;;;;5069445;28;20026;-86
2021/10/14 14:34:33;;;;;;;9.82;4.57;;;;;;;;;;5040821;28;20078;-87
2021/10/14 14:36:58;;;;;;;9.45;4.00;;;;;;;;;;5038886;28;20387;-86
2021/10/14 14:39:24;;;;;;;10.38;4.85;;;;;;;;;;5041439;28;20017;-87